sensor_id;sensor_type;location;lat;lon;timestamp;P1;durP1;ratioP1;P2;durP2;ratioP2
56173;SDS011;42058;52.308;20.924;2023-06-14T00:01:41;9.80;;;4.30;;
56173;SDS011;42058;52.308;20.924;2023-06-14T00:04:13;6.80;;;4.00;;
56173;SDS011;42058;52.308;20.924;2023-06-14T00:06:41;5.20;;;3.90;;
56173;SDS011;42058;52.308;20.924;2023-06-14T00:09:09;8.60;;;5.00;;
56173;SDS011;42058;52.308;20.924;2023-06-14T00:11:37;5.00;;;4.50;;
56173;SDS011;42058;52.308;20.924;2023-06-14T00:14:05;8.20;;;4.70;;
56173;SDS011;42058;52.308;20.924;2023-06-14T00:16:33;9.80;;;4.90;;
56173;SDS011;42058;52.308;20.924;2023-06-14T00:19:02;6.60;;;4.20;;
56173;SDS011;42058;52.308;20.924;2023-06-14T00:21:31;6.70;;;4.40;;
56173;SDS011;42058;52.308;20.924;2023-06-14T00:24:00;4.70;;;4.20;;
56173;SDS011;42058;52.308;20.924;2023-06-14T00:26:31;5.90;;;4.30;;
56173;SDS011;42058;52.308;20.924;2023-06-14T00:29:02;7.20;;;3.90;;
56173;SDS011;42058;52.308;20.924;2023-06-14T00:31:43;5.00;;;4.30;;
56173;SDS011;42058;52.308;20.924;2023-06-14T00:34:11;8.20;;;4.50;;
56173;SDS011;42058;52.308;20.924;2023-06-14T00:36:41;9.10;;;4.50;;
56173;SDS011;42058;52.308;20.924;2023-06-14T00:39:14;6.10;;;4.50;;
56173;SDS011;42058;52.308;20.924;2023-06-14T00:41:42;6.80;;;4.30;;
56173;SDS011;42058;52.308;20.924;2023-06-14T00:47:23;6.30;;;4.00;;
56173;SDS011;42058;52.308;20.924;2023-06-14T00:52:30;10.50;;;4.50;;
56173;SDS011;42058;52.308;20.924;2023-06-14T00:55:00;9.00;;;4.30;;
56173;SDS011;42058;52.308;20.924;2023-06-14T00:57:29;8.50;;;4.40;;
56173;SDS011;42058;52.308;20.924;2023-06-14T00:59:57;10.90;;;4.50;;
56173;SDS011;42058;52.308;20.924;2023-06-14T01:06:10;7.70;;;4.40;;
56173;SDS011;42058;52.308;20.924;2023-06-14T01:12:11;5.40;;;4.40;;
56173;SDS011;42058;52.308;20.924;2023-06-14T01:14:44;6.30;;;4.70;;
56173;SDS011;42058;52.308;20.924;2023-06-14T01:17:15;7.50;;;4.60;;
56173;SDS011;42058;52.308;20.924;2023-06-14T01:19:44;8.40;;;5.10;;
56173;SDS011;42058;52.308;20.924;2023-06-14T01:22:14;10.40;;;4.90;;
56173;SDS011;42058;52.308;20.924;2023-06-14T01:24:42;6.10;;;4.30;;
56173;SDS011;42058;52.308;20.924;2023-06-14T01:27:12;13.70;;;4.90;;
56173;SDS011;42058;52.308;20.924;2023-06-14T01:29:40;7.00;;;4.50;;
56173;SDS011;42058;52.308;20.924;2023-06-14T01:32:15;7.90;;;5.10;;
56173;SDS011;42058;52.308;20.924;2023-06-14T01:34:43;8.60;;;5.40;;
56173;SDS011;42058;52.308;20.924;2023-06-14T01:37:11;11.00;;;5.10;;
56173;SDS011;42058;52.308;20.924;2023-06-14T01:39:41;8.20;;;5.20;;
56173;SDS011;42058;52.308;20.924;2023-06-14T01:42:11;5.80;;;5.00;;
56173;SDS011;42058;52.308;20.924;2023-06-14T01:44:41;7.70;;;5.20;;
56173;SDS011;42058;52.308;20.924;2023-06-14T01:47:11;6.80;;;4.60;;
56173;SDS011;42058;52.308;20.924;2023-06-14T01:49:39;6.60;;;5.20;;
56173;SDS011;42058;52.308;20.924;2023-06-14T01:52:08;6.80;;;4.70;;
56173;SDS011;42058;52.308;20.924;2023-06-14T01:54:37;8.30;;;5.10;;
56173;SDS011;42058;52.308;20.924;2023-06-14T01:57:09;6.20;;;5.30;;
56173;SDS011;42058;52.308;20.924;2023-06-14T01:59:38;8.00;;;5.20;;
56173;SDS011;42058;52.308;20.924;2023-06-14T02:02:09;7.20;;;5.50;;
56173;SDS011;42058;52.308;20.924;2023-06-14T02:04:36;11.20;;;5.60;;
56173;SDS011;42058;52.308;20.924;2023-06-14T02:07:07;7.10;;;5.20;;
56173;SDS011;42058;52.308;20.924;2023-06-14T02:09:37;8.00;;;5.20;;
56173;SDS011;42058;52.308;20.924;2023-06-14T02:12:05;9.80;;;5.40;;
56173;SDS011;42058;52.308;20.924;2023-06-14T02:14:33;8.40;;;5.80;;
56173;SDS011;42058;52.308;20.924;2023-06-14T02:17:01;9.70;;;5.30;;
56173;SDS011;42058;52.308;20.924;2023-06-14T02:19:29;11.80;;;6.20;;
56173;SDS011;42058;52.308;20.924;2023-06-14T02:21:57;11.80;;;6.00;;
56173;SDS011;42058;52.308;20.924;2023-06-14T02:24:25;8.30;;;5.00;;
56173;SDS011;42058;52.308;20.924;2023-06-14T02:26:53;8.40;;;5.70;;
56173;SDS011;42058;52.308;20.924;2023-06-14T02:29:21;8.90;;;5.40;;
56173;SDS011;42058;52.308;20.924;2023-06-14T02:31:48;9.60;;;5.80;;
56173;SDS011;42058;52.308;20.924;2023-06-14T02:34:20;9.90;;;5.50;;
56173;SDS011;42058;52.308;20.924;2023-06-14T02:36:49;9.30;;;6.20;;
56173;SDS011;42058;52.308;20.924;2023-06-14T02:39:17;5.90;;;5.30;;
56173;SDS011;42058;52.308;20.924;2023-06-14T02:41:45;7.70;;;5.50;;
56173;SDS011;42058;52.308;20.924;2023-06-14T02:44:13;8.60;;;6.30;;
56173;SDS011;42058;52.308;20.924;2023-06-14T02:46:41;10.40;;;6.40;;
56173;SDS011;42058;52.308;20.924;2023-06-14T02:49:09;11.00;;;6.50;;
56173;SDS011;42058;52.308;20.924;2023-06-14T02:51:38;8.30;;;5.70;;
56173;SDS011;42058;52.308;20.924;2023-06-14T02:54:06;9.70;;;6.50;;
56173;SDS011;42058;52.308;20.924;2023-06-14T02:56:33;9.50;;;5.80;;
56173;SDS011;42058;52.308;20.924;2023-06-14T02:59:02;8.90;;;6.20;;
56173;SDS011;42058;52.308;20.924;2023-06-14T03:01:30;13.00;;;6.40;;
56173;SDS011;42058;52.308;20.924;2023-06-14T03:04:04;9.30;;;5.90;;
56173;SDS011;42058;52.308;20.924;2023-06-14T03:06:32;9.50;;;5.60;;
56173;SDS011;42058;52.308;20.924;2023-06-14T03:09:01;12.80;;;6.20;;
56173;SDS011;42058;52.308;20.924;2023-06-14T03:11:35;8.50;;;6.50;;
56173;SDS011;42058;52.308;20.924;2023-06-14T03:14:03;7.70;;;5.90;;
56173;SDS011;42058;52.308;20.924;2023-06-14T03:16:32;11.80;;;6.80;;
56173;SDS011;42058;52.308;20.924;2023-06-14T03:19:00;11.80;;;7.30;;
56173;SDS011;42058;52.308;20.924;2023-06-14T03:21:30;10.40;;;6.60;;
56173;SDS011;42058;52.308;20.924;2023-06-14T03:24:00;9.90;;;6.60;;
56173;SDS011;42058;52.308;20.924;2023-06-14T03:26:28;15.10;;;6.60;;
56173;SDS011;42058;52.308;20.924;2023-06-14T03:28:59;12.70;;;6.60;;
56173;SDS011;42058;52.308;20.924;2023-06-14T03:31:28;8.50;;;6.10;;
56173;SDS011;42058;52.308;20.924;2023-06-14T03:34:01;9.60;;;6.30;;
56173;SDS011;42058;52.308;20.924;2023-06-14T03:36:29;6.70;;;5.80;;
56173;SDS011;42058;52.308;20.924;2023-06-14T03:38:57;7.70;;;6.30;;
56173;SDS011;42058;52.308;20.924;2023-06-14T03:41:25;10.10;;;5.80;;
56173;SDS011;42058;52.308;20.924;2023-06-14T03:43:54;7.30;;;5.40;;
56173;SDS011;42058;52.308;20.924;2023-06-14T03:46:22;6.90;;;5.70;;
56173;SDS011;42058;52.308;20.924;2023-06-14T03:48:50;8.20;;;6.00;;
56173;SDS011;42058;52.308;20.924;2023-06-14T03:51:18;8.30;;;6.10;;
56173;SDS011;42058;52.308;20.924;2023-06-14T03:53:45;9.70;;;6.10;;
56173;SDS011;42058;52.308;20.924;2023-06-14T03:56:34;7.50;;;5.40;;
56173;SDS011;42058;52.308;20.924;2023-06-14T03:59:05;9.10;;;5.90;;
56173;SDS011;42058;52.308;20.924;2023-06-14T04:01:33;10.00;;;5.90;;
56173;SDS011;42058;52.308;20.924;2023-06-14T04:04:01;9.60;;;5.50;;
56173;SDS011;42058;52.308;20.924;2023-06-14T04:06:29;11.10;;;7.20;;
56173;SDS011;42058;52.308;20.924;2023-06-14T04:09:00;9.10;;;6.50;;
56173;SDS011;42058;52.308;20.924;2023-06-14T04:11:31;11.70;;;5.90;;
56173;SDS011;42058;52.308;20.924;2023-06-14T04:13:59;9.30;;;6.60;;
56173;SDS011;42058;52.308;20.924;2023-06-14T04:16:27;8.40;;;6.30;;
56173;SDS011;42058;52.308;20.924;2023-06-14T04:18:55;9.70;;;6.60;;
56173;SDS011;42058;52.308;20.924;2023-06-14T04:21:23;7.80;;;5.90;;
56173;SDS011;42058;52.308;20.924;2023-06-14T04:23:53;7.80;;;6.20;;
56173;SDS011;42058;52.308;20.924;2023-06-14T04:28:58;7.10;;;5.40;;
56173;SDS011;42058;52.308;20.924;2023-06-14T04:31:31;7.90;;;6.50;;
56173;SDS011;42058;52.308;20.924;2023-06-14T04:34:07;8.90;;;6.00;;
56173;SDS011;42058;52.308;20.924;2023-06-14T04:36:36;8.70;;;6.30;;
56173;SDS011;42058;52.308;20.924;2023-06-14T04:39:09;8.00;;;6.50;;
56173;SDS011;42058;52.308;20.924;2023-06-14T04:41:37;9.20;;;7.10;;
56173;SDS011;42058;52.308;20.924;2023-06-14T04:44:05;10.60;;;6.80;;
56173;SDS011;42058;52.308;20.924;2023-06-14T04:46:39;8.20;;;6.60;;
56173;SDS011;42058;52.308;20.924;2023-06-14T04:49:21;12.30;;;6.80;;
56173;SDS011;42058;52.308;20.924;2023-06-14T04:51:56;9.30;;;6.90;;
56173;SDS011;42058;52.308;20.924;2023-06-14T04:54:35;10.20;;;6.80;;
56173;SDS011;42058;52.308;20.924;2023-06-14T04:57:08;10.40;;;6.70;;
56173;SDS011;42058;52.308;20.924;2023-06-14T04:59:43;10.40;;;6.30;;
56173;SDS011;42058;52.308;20.924;2023-06-14T05:02:11;8.80;;;7.20;;
56173;SDS011;42058;52.308;20.924;2023-06-14T05:04:39;9.30;;;7.50;;
56173;SDS011;42058;52.308;20.924;2023-06-14T05:07:08;8.60;;;6.80;;
56173;SDS011;42058;52.308;20.924;2023-06-14T05:09:36;10.50;;;6.20;;
56173;SDS011;42058;52.308;20.924;2023-06-14T05:12:04;7.20;;;6.20;;
56173;SDS011;42058;52.308;20.924;2023-06-14T05:14:36;12.30;;;7.10;;
56173;SDS011;42058;52.308;20.924;2023-06-14T05:17:05;8.50;;;6.70;;
56173;SDS011;42058;52.308;20.924;2023-06-14T05:19:33;10.80;;;6.60;;
56173;SDS011;42058;52.308;20.924;2023-06-14T05:22:01;13.00;;;6.90;;
56173;SDS011;42058;52.308;20.924;2023-06-14T05:24:30;9.60;;;6.30;;
56173;SDS011;42058;52.308;20.924;2023-06-14T05:27:00;8.40;;;6.50;;
56173;SDS011;42058;52.308;20.924;2023-06-14T05:29:28;11.30;;;7.00;;
56173;SDS011;42058;52.308;20.924;2023-06-14T05:31:57;10.10;;;6.70;;
56173;SDS011;42058;52.308;20.924;2023-06-14T05:34:25;10.50;;;6.70;;
56173;SDS011;42058;52.308;20.924;2023-06-14T05:36:53;11.60;;;7.10;;
56173;SDS011;42058;52.308;20.924;2023-06-14T05:39:20;8.40;;;6.70;;
56173;SDS011;42058;52.308;20.924;2023-06-14T05:41:48;10.50;;;6.50;;
56173;SDS011;42058;52.308;20.924;2023-06-14T05:44:17;11.60;;;6.70;;
56173;SDS011;42058;52.308;20.924;2023-06-14T05:46:45;8.90;;;6.60;;
56173;SDS011;42058;52.308;20.924;2023-06-14T05:49:13;9.90;;;6.50;;
56173;SDS011;42058;52.308;20.924;2023-06-14T05:51:40;10.10;;;6.90;;
56173;SDS011;42058;52.308;20.924;2023-06-14T05:54:08;12.20;;;7.20;;
56173;SDS011;42058;52.308;20.924;2023-06-14T05:56:36;10.40;;;6.80;;
56173;SDS011;42058;52.308;20.924;2023-06-14T05:59:03;8.70;;;6.70;;
56173;SDS011;42058;52.308;20.924;2023-06-14T06:01:31;14.30;;;6.90;;
56173;SDS011;42058;52.308;20.924;2023-06-14T06:04:01;8.90;;;6.40;;
56173;SDS011;42058;52.308;20.924;2023-06-14T06:06:29;11.10;;;7.20;;
56173;SDS011;42058;52.308;20.924;2023-06-14T06:08:57;9.20;;;6.20;;
56173;SDS011;42058;52.308;20.924;2023-06-14T06:11:25;10.40;;;6.30;;
56173;SDS011;42058;52.308;20.924;2023-06-14T06:13:59;10.40;;;6.30;;
56173;SDS011;42058;52.308;20.924;2023-06-14T06:16:26;9.90;;;6.70;;
56173;SDS011;42058;52.308;20.924;2023-06-14T06:18:54;9.50;;;6.80;;
56173;SDS011;42058;52.308;20.924;2023-06-14T06:21:22;12.60;;;6.40;;
56173;SDS011;42058;52.308;20.924;2023-06-14T06:23:50;7.50;;;6.10;;
56173;SDS011;42058;52.308;20.924;2023-06-14T06:26:17;9.40;;;6.50;;
56173;SDS011;42058;52.308;20.924;2023-06-14T06:28:45;8.90;;;6.40;;
56173;SDS011;42058;52.308;20.924;2023-06-14T06:31:13;8.70;;;6.20;;
56173;SDS011;42058;52.308;20.924;2023-06-14T06:33:42;12.60;;;7.30;;
56173;SDS011;42058;52.308;20.924;2023-06-14T06:36:10;13.50;;;7.10;;
56173;SDS011;42058;52.308;20.924;2023-06-14T06:38:39;10.00;;;6.40;;
56173;SDS011;42058;52.308;20.924;2023-06-14T06:41:07;8.60;;;6.40;;
56173;SDS011;42058;52.308;20.924;2023-06-14T06:43:35;9.40;;;6.30;;
56173;SDS011;42058;52.308;20.924;2023-06-14T06:46:02;8.90;;;6.40;;
56173;SDS011;42058;52.308;20.924;2023-06-14T06:48:30;10.00;;;6.10;;
56173;SDS011;42058;52.308;20.924;2023-06-14T06:50:58;12.00;;;6.70;;
56173;SDS011;42058;52.308;20.924;2023-06-14T06:53:26;8.50;;;6.60;;
56173;SDS011;42058;52.308;20.924;2023-06-14T06:56:09;11.00;;;6.50;;
56173;SDS011;42058;52.308;20.924;2023-06-14T06:58:37;12.90;;;6.70;;
56173;SDS011;42058;52.308;20.924;2023-06-14T07:01:05;14.20;;;6.90;;
56173;SDS011;42058;52.308;20.924;2023-06-14T07:03:33;11.70;;;6.60;;
56173;SDS011;42058;52.308;20.924;2023-06-14T07:06:01;13.50;;;6.70;;
56173;SDS011;42058;52.308;20.924;2023-06-14T07:08:29;7.00;;;5.70;;
56173;SDS011;42058;52.308;20.924;2023-06-14T07:10:57;12.50;;;6.50;;
56173;SDS011;42058;52.308;20.924;2023-06-14T07:13:24;6.90;;;5.90;;
56173;SDS011;42058;52.308;20.924;2023-06-14T07:15:54;9.90;;;6.70;;
56173;SDS011;42058;52.308;20.924;2023-06-14T07:18:22;8.70;;;6.20;;
56173;SDS011;42058;52.308;20.924;2023-06-14T07:20:50;7.80;;;6.80;;
56173;SDS011;42058;52.308;20.924;2023-06-14T07:23:18;7.50;;;6.30;;
56173;SDS011;42058;52.308;20.924;2023-06-14T07:25:46;10.40;;;6.50;;
56173;SDS011;42058;52.308;20.924;2023-06-14T07:28:14;8.30;;;6.10;;
56173;SDS011;42058;52.308;20.924;2023-06-14T07:30:42;9.40;;;6.10;;
56173;SDS011;42058;52.308;20.924;2023-06-14T07:33:09;6.90;;;6.00;;
56173;SDS011;42058;52.308;20.924;2023-06-14T07:35:41;9.00;;;6.40;;
56173;SDS011;42058;52.308;20.924;2023-06-14T07:38:09;7.90;;;6.20;;
56173;SDS011;42058;52.308;20.924;2023-06-14T07:40:37;9.10;;;6.60;;
56173;SDS011;42058;52.308;20.924;2023-06-14T07:43:05;8.80;;;6.20;;
56173;SDS011;42058;52.308;20.924;2023-06-14T07:45:33;11.90;;;6.00;;
56173;SDS011;42058;52.308;20.924;2023-06-14T07:48:00;10.30;;;6.80;;
56173;SDS011;42058;52.308;20.924;2023-06-14T07:50:28;10.70;;;6.80;;
56173;SDS011;42058;52.308;20.924;2023-06-14T07:52:56;11.40;;;6.00;;
56173;SDS011;42058;52.308;20.924;2023-06-14T07:55:24;10.50;;;6.10;;
56173;SDS011;42058;52.308;20.924;2023-06-14T07:57:52;9.00;;;5.20;;
56173;SDS011;42058;52.308;20.924;2023-06-14T08:00:21;10.90;;;6.00;;
56173;SDS011;42058;52.308;20.924;2023-06-14T08:02:48;7.70;;;6.70;;
56173;SDS011;42058;52.308;20.924;2023-06-14T08:05:21;8.50;;;5.70;;
56173;SDS011;42058;52.308;20.924;2023-06-14T08:07:49;8.00;;;5.80;;
56173;SDS011;42058;52.308;20.924;2023-06-14T08:10:17;7.10;;;5.70;;
56173;SDS011;42058;52.308;20.924;2023-06-14T08:12:45;8.40;;;5.80;;
56173;SDS011;42058;52.308;20.924;2023-06-14T08:15:13;12.30;;;5.70;;
56173;SDS011;42058;52.308;20.924;2023-06-14T08:17:44;8.90;;;5.30;;
56173;SDS011;42058;52.308;20.924;2023-06-14T08:20:12;9.20;;;5.20;;
56173;SDS011;42058;52.308;20.924;2023-06-14T08:22:44;10.10;;;5.50;;
56173;SDS011;42058;52.308;20.924;2023-06-14T08:25:13;9.70;;;5.50;;
56173;SDS011;42058;52.308;20.924;2023-06-14T08:27:42;7.90;;;5.80;;
56173;SDS011;42058;52.308;20.924;2023-06-14T08:30:09;6.60;;;5.40;;
56173;SDS011;42058;52.308;20.924;2023-06-14T08:32:38;11.20;;;5.80;;
56173;SDS011;42058;52.308;20.924;2023-06-14T08:35:06;7.30;;;5.40;;
56173;SDS011;42058;52.308;20.924;2023-06-14T08:37:38;8.20;;;5.50;;
56173;SDS011;42058;52.308;20.924;2023-06-14T08:40:12;7.50;;;4.80;;
56173;SDS011;42058;52.308;20.924;2023-06-14T08:42:54;7.40;;;5.00;;
56173;SDS011;42058;52.308;20.924;2023-06-14T08:45:23;9.80;;;5.10;;
56173;SDS011;42058;52.308;20.924;2023-06-14T08:47:55;5.90;;;4.70;;
56173;SDS011;42058;52.308;20.924;2023-06-14T08:50:27;6.30;;;4.60;;
56173;SDS011;42058;52.308;20.924;2023-06-14T08:53:00;8.80;;;5.30;;
56173;SDS011;42058;52.308;20.924;2023-06-14T08:55:31;7.50;;;4.40;;
56173;SDS011;42058;52.308;20.924;2023-06-14T08:58:04;11.60;;;4.70;;
56173;SDS011;42058;52.308;20.924;2023-06-14T09:00:33;7.70;;;4.90;;
56173;SDS011;42058;52.308;20.924;2023-06-14T09:03:01;5.90;;;4.20;;
56173;SDS011;42058;52.308;20.924;2023-06-14T09:05:30;6.70;;;4.60;;
56173;SDS011;42058;52.308;20.924;2023-06-14T09:07:58;10.10;;;4.40;;
56173;SDS011;42058;52.308;20.924;2023-06-14T09:10:32;7.10;;;4.30;;
56173;SDS011;42058;52.308;20.924;2023-06-14T09:13:06;10.50;;;4.40;;
56173;SDS011;42058;52.308;20.924;2023-06-14T09:15:34;5.80;;;4.50;;
56173;SDS011;42058;52.308;20.924;2023-06-14T09:18:03;7.40;;;4.20;;
56173;SDS011;42058;52.308;20.924;2023-06-14T09:20:31;11.00;;;4.30;;
56173;SDS011;42058;52.308;20.924;2023-06-14T09:23:00;8.60;;;3.90;;
56173;SDS011;42058;52.308;20.924;2023-06-14T09:25:28;9.90;;;4.30;;
56173;SDS011;42058;52.308;20.924;2023-06-14T09:28:06;9.90;;;4.30;;
56173;SDS011;42058;52.308;20.924;2023-06-14T09:30:39;6.40;;;3.70;;
56173;SDS011;42058;52.308;20.924;2023-06-14T09:33:08;4.70;;;4.00;;
56173;SDS011;42058;52.308;20.924;2023-06-14T09:35:36;4.70;;;4.10;;
56173;SDS011;42058;52.308;20.924;2023-06-14T09:38:05;10.40;;;4.40;;
56173;SDS011;42058;52.308;20.924;2023-06-14T09:40:35;4.90;;;3.80;;
56173;SDS011;42058;52.308;20.924;2023-06-14T09:43:05;7.40;;;4.00;;
56173;SDS011;42058;52.308;20.924;2023-06-14T09:45:38;4.40;;;4.00;;
56173;SDS011;42058;52.308;20.924;2023-06-14T09:48:08;9.30;;;4.00;;
56173;SDS011;42058;52.308;20.924;2023-06-14T09:50:37;5.50;;;3.80;;
56173;SDS011;42058;52.308;20.924;2023-06-14T09:53:07;10.30;;;3.90;;
56173;SDS011;42058;52.308;20.924;2023-06-14T09:55:39;6.70;;;3.70;;
56173;SDS011;42058;52.308;20.924;2023-06-14T09:58:13;10.90;;;4.60;;
56173;SDS011;42058;52.308;20.924;2023-06-14T10:00:45;3.80;;;3.40;;
56173;SDS011;42058;52.308;20.924;2023-06-14T10:05:49;5.60;;;4.40;;
56173;SDS011;42058;52.308;20.924;2023-06-14T10:08:23;5.80;;;5.00;;
56173;SDS011;42058;52.308;20.924;2023-06-14T10:10:58;11.00;;;4.80;;
56173;SDS011;42058;52.308;20.924;2023-06-14T10:13:31;10.40;;;4.70;;
56173;SDS011;42058;52.308;20.924;2023-06-14T10:16:11;7.50;;;3.80;;
56173;SDS011;42058;52.308;20.924;2023-06-14T10:18:49;11.10;;;4.10;;
56173;SDS011;42058;52.308;20.924;2023-06-14T10:21:32;7.20;;;3.80;;
56173;SDS011;42058;52.308;20.924;2023-06-14T10:24:13;7.70;;;4.20;;
56173;SDS011;42058;52.308;20.924;2023-06-14T10:26:50;7.50;;;3.70;;
56173;SDS011;42058;52.308;20.924;2023-06-14T10:29:28;5.90;;;4.00;;
56173;SDS011;42058;52.308;20.924;2023-06-14T10:32:15;9.50;;;4.10;;
56173;SDS011;42058;52.308;20.924;2023-06-14T10:35:05;7.50;;;3.40;;
56173;SDS011;42058;52.308;20.924;2023-06-14T10:38:11;6.10;;;3.30;;
56173;SDS011;42058;52.308;20.924;2023-06-14T10:41:17;4.50;;;2.80;;
56173;SDS011;42058;52.308;20.924;2023-06-14T10:44:32;3.30;;;2.70;;
56173;SDS011;42058;52.308;20.924;2023-06-14T10:47:24;5.20;;;2.80;;
56173;SDS011;42058;52.308;20.924;2023-06-14T10:50:09;6.10;;;3.60;;
56173;SDS011;42058;52.308;20.924;2023-06-14T10:52:42;4.30;;;2.90;;
56173;SDS011;42058;52.308;20.924;2023-06-14T10:55:17;3.40;;;2.60;;
56173;SDS011;42058;52.308;20.924;2023-06-14T10:57:48;4.10;;;2.80;;
56173;SDS011;42058;52.308;20.924;2023-06-14T11:00:22;8.50;;;2.70;;
56173;SDS011;42058;52.308;20.924;2023-06-14T11:05:48;7.30;;;2.70;;
56173;SDS011;42058;52.308;20.924;2023-06-14T11:10:58;4.20;;;2.80;;
56173;SDS011;42058;52.308;20.924;2023-06-14T11:13:27;3.50;;;2.70;;
56173;SDS011;42058;52.308;20.924;2023-06-14T11:15:58;8.60;;;2.70;;
56173;SDS011;42058;52.308;20.924;2023-06-14T11:18:28;4.40;;;2.60;;
56173;SDS011;42058;52.308;20.924;2023-06-14T11:20:56;6.80;;;2.60;;
56173;SDS011;42058;52.308;20.924;2023-06-14T11:23:27;6.10;;;2.90;;
56173;SDS011;42058;52.308;20.924;2023-06-14T11:25:55;3.80;;;2.90;;
56173;SDS011;42058;52.308;20.924;2023-06-14T11:28:38;3.20;;;2.90;;
56173;SDS011;42058;52.308;20.924;2023-06-14T11:31:08;7.00;;;3.30;;
56173;SDS011;42058;52.308;20.924;2023-06-14T11:33:37;4.60;;;2.70;;
56173;SDS011;42058;52.308;20.924;2023-06-14T11:36:05;4.70;;;2.50;;
56173;SDS011;42058;52.308;20.924;2023-06-14T11:38:38;3.90;;;2.30;;
56173;SDS011;42058;52.308;20.924;2023-06-14T11:41:06;3.40;;;2.50;;
56173;SDS011;42058;52.308;20.924;2023-06-14T11:43:33;5.10;;;2.30;;
56173;SDS011;42058;52.308;20.924;2023-06-14T11:46:02;5.40;;;2.40;;
56173;SDS011;42058;52.308;20.924;2023-06-14T11:48:41;3.90;;;2.20;;
56173;SDS011;42058;52.308;20.924;2023-06-14T11:51:19;5.50;;;2.30;;
56173;SDS011;42058;52.308;20.924;2023-06-14T11:53:47;6.80;;;2.10;;
56173;SDS011;42058;52.308;20.924;2023-06-14T11:56:16;3.90;;;2.30;;
56173;SDS011;42058;52.308;20.924;2023-06-14T11:58:44;2.80;;;2.50;;
56173;SDS011;42058;52.308;20.924;2023-06-14T12:01:20;6.90;;;2.50;;
56173;SDS011;42058;52.308;20.924;2023-06-14T12:03:50;4.10;;;2.40;;
56173;SDS011;42058;52.308;20.924;2023-06-14T12:06:27;8.60;;;2.20;;
56173;SDS011;42058;52.308;20.924;2023-06-14T12:08:56;3.40;;;2.10;;
56173;SDS011;42058;52.308;20.924;2023-06-14T12:11:28;2.50;;;1.90;;
56173;SDS011;42058;52.308;20.924;2023-06-14T12:13:59;5.00;;;2.10;;
56173;SDS011;42058;52.308;20.924;2023-06-14T12:19:31;2.40;;;2.20;;
56173;SDS011;42058;52.308;20.924;2023-06-14T12:21:59;5.40;;;2.10;;
56173;SDS011;42058;52.308;20.924;2023-06-14T12:24:32;3.80;;;2.20;;
56173;SDS011;42058;52.308;20.924;2023-06-14T12:27:00;3.10;;;2.30;;
56173;SDS011;42058;52.308;20.924;2023-06-14T12:29:30;7.90;;;2.50;;
56173;SDS011;42058;52.308;20.924;2023-06-14T12:31:58;5.50;;;2.30;;
56173;SDS011;42058;52.308;20.924;2023-06-14T12:34:28;4.30;;;2.20;;
56173;SDS011;42058;52.308;20.924;2023-06-14T12:36:56;3.40;;;2.10;;
56173;SDS011;42058;52.308;20.924;2023-06-14T12:39:24;2.80;;;2.10;;
56173;SDS011;42058;52.308;20.924;2023-06-14T12:41:52;3.10;;;1.90;;
56173;SDS011;42058;52.308;20.924;2023-06-14T12:44:20;4.70;;;2.40;;
56173;SDS011;42058;52.308;20.924;2023-06-14T12:46:50;5.00;;;2.20;;
56173;SDS011;42058;52.308;20.924;2023-06-14T12:49:19;4.50;;;2.60;;
56173;SDS011;42058;52.308;20.924;2023-06-14T12:51:49;4.50;;;2.40;;
56173;SDS011;42058;52.308;20.924;2023-06-14T12:54:17;3.30;;;2.50;;
56173;SDS011;42058;52.308;20.924;2023-06-14T12:57:07;4.90;;;2.30;;
56173;SDS011;42058;52.308;20.924;2023-06-14T12:59:35;3.30;;;2.50;;
56173;SDS011;42058;52.308;20.924;2023-06-14T13:02:15;5.50;;;2.50;;
56173;SDS011;42058;52.308;20.924;2023-06-14T13:04:45;6.30;;;2.50;;
56173;SDS011;42058;52.308;20.924;2023-06-14T13:07:12;4.00;;;2.40;;
56173;SDS011;42058;52.308;20.924;2023-06-14T13:09:42;3.50;;;2.30;;
56173;SDS011;42058;52.308;20.924;2023-06-14T13:12:11;3.60;;;2.10;;
56173;SDS011;42058;52.308;20.924;2023-06-14T13:14:40;3.80;;;1.90;;
56173;SDS011;42058;52.308;20.924;2023-06-14T13:17:08;5.70;;;2.20;;
56173;SDS011;42058;52.308;20.924;2023-06-14T13:19:37;3.30;;;1.90;;
56173;SDS011;42058;52.308;20.924;2023-06-14T13:22:05;3.50;;;1.90;;
56173;SDS011;42058;52.308;20.924;2023-06-14T13:24:34;2.40;;;1.90;;
56173;SDS011;42058;52.308;20.924;2023-06-14T13:27:04;5.10;;;2.30;;
56173;SDS011;42058;52.308;20.924;2023-06-14T13:29:32;2.50;;;2.00;;
56173;SDS011;42058;52.308;20.924;2023-06-14T13:32:04;4.90;;;2.40;;
56173;SDS011;42058;52.308;20.924;2023-06-14T13:34:32;4.90;;;2.30;;
56173;SDS011;42058;52.308;20.924;2023-06-14T13:37:00;4.80;;;2.40;;
56173;SDS011;42058;52.308;20.924;2023-06-14T13:39:27;2.70;;;2.20;;
56173;SDS011;42058;52.308;20.924;2023-06-14T13:41:55;5.40;;;2.40;;
56173;SDS011;42058;52.308;20.924;2023-06-14T13:44:23;4.50;;;2.50;;
56173;SDS011;42058;52.308;20.924;2023-06-14T13:46:52;6.10;;;2.40;;
56173;SDS011;42058;52.308;20.924;2023-06-14T13:49:20;62.20;;;9.20;;
56173;SDS011;42058;52.308;20.924;2023-06-14T13:51:48;2.60;;;2.20;;
56173;SDS011;42058;52.308;20.924;2023-06-14T13:54:18;5.70;;;2.60;;
56173;SDS011;42058;52.308;20.924;2023-06-14T13:56:47;4.30;;;2.40;;
56173;SDS011;42058;52.308;20.924;2023-06-14T13:59:15;3.50;;;2.30;;
56173;SDS011;42058;52.308;20.924;2023-06-14T14:01:43;5.00;;;2.20;;
56173;SDS011;42058;52.308;20.924;2023-06-14T14:04:11;5.70;;;2.40;;
56173;SDS011;42058;52.308;20.924;2023-06-14T14:06:39;4.60;;;2.50;;
56173;SDS011;42058;52.308;20.924;2023-06-14T14:09:07;4.00;;;2.70;;
56173;SDS011;42058;52.308;20.924;2023-06-14T14:11:35;3.90;;;2.40;;
56173;SDS011;42058;52.308;20.924;2023-06-14T14:14:03;4.60;;;2.40;;
56173;SDS011;42058;52.308;20.924;2023-06-14T14:16:32;2.80;;;2.00;;
56173;SDS011;42058;52.308;20.924;2023-06-14T14:19:00;5.50;;;2.70;;
56173;SDS011;42058;52.308;20.924;2023-06-14T14:21:29;2.50;;;2.30;;
56173;SDS011;42058;52.308;20.924;2023-06-14T14:23:57;8.00;;;2.60;;
56173;SDS011;42058;52.308;20.924;2023-06-14T14:26:25;5.40;;;2.50;;
56173;SDS011;42058;52.308;20.924;2023-06-14T14:28:53;5.00;;;2.30;;
56173;SDS011;42058;52.308;20.924;2023-06-14T14:31:21;2.60;;;2.20;;
56173;SDS011;42058;52.308;20.924;2023-06-14T14:33:49;4.10;;;2.60;;
56173;SDS011;42058;52.308;20.924;2023-06-14T14:36:18;5.20;;;2.20;;
56173;SDS011;42058;52.308;20.924;2023-06-14T14:38:46;2.90;;;2.20;;
56173;SDS011;42058;52.308;20.924;2023-06-14T14:41:14;3.40;;;2.10;;
56173;SDS011;42058;52.308;20.924;2023-06-14T14:43:42;3.10;;;2.20;;
56173;SDS011;42058;52.308;20.924;2023-06-14T14:46:13;5.60;;;3.00;;
56173;SDS011;42058;52.308;20.924;2023-06-14T14:48:40;5.00;;;2.50;;
56173;SDS011;42058;52.308;20.924;2023-06-14T14:51:08;3.50;;;2.20;;
56173;SDS011;42058;52.308;20.924;2023-06-14T14:53:56;3.50;;;2.20;;
56173;SDS011;42058;52.308;20.924;2023-06-14T14:56:24;3.00;;;2.50;;
56173;SDS011;42058;52.308;20.924;2023-06-14T14:58:53;5.70;;;2.70;;
56173;SDS011;42058;52.308;20.924;2023-06-14T15:01:21;5.10;;;2.90;;
56173;SDS011;42058;52.308;20.924;2023-06-14T15:03:48;4.50;;;3.10;;
56173;SDS011;42058;52.308;20.924;2023-06-14T15:06:26;4.40;;;3.30;;
56173;SDS011;42058;52.308;20.924;2023-06-14T15:08:54;4.30;;;2.80;;
56173;SDS011;42058;52.308;20.924;2023-06-14T15:11:26;4.10;;;2.70;;
56173;SDS011;42058;52.308;20.924;2023-06-14T15:13:54;4.30;;;2.70;;
56173;SDS011;42058;52.308;20.924;2023-06-14T15:16:22;5.50;;;2.90;;